createdAt,value
2023-04-12T00:00:47.799Z,7.91
2023-04-12T00:01:47.834Z,7.92
2023-04-12T00:02:47.999Z,7.84
2023-04-12T00:03:47.946Z,7.87
2023-04-12T00:04:47.924Z,7.92
2023-04-12T00:05:47.739Z,7.88
2023-04-12T00:06:47.740Z,7.91
2023-04-12T00:07:47.721Z,7.88
2023-04-12T00:08:47.714Z,7.88
2023-04-12T00:09:47.725Z,7.73
2023-04-12T00:10:47.690Z,7.87
2023-04-12T00:11:47.681Z,7.78
2023-04-12T00:12:47.676Z,7.80
2023-04-12T00:13:47.657Z,7.78
2023-04-12T00:14:47.652Z,7.77
2023-04-12T00:15:47.707Z,7.73
2023-04-12T00:16:47.631Z,7.80
2023-04-12T00:17:47.650Z,7.74
2023-04-12T00:18:47.618Z,7.77
2023-04-12T00:19:47.617Z,7.76
2023-04-12T00:20:47.607Z,7.69
2023-04-12T00:21:47.571Z,7.71
2023-04-12T00:22:47.563Z,7.71
2023-04-12T00:23:47.601Z,7.68
2023-04-12T00:24:47.567Z,7.74
2023-04-12T00:25:47.537Z,7.73
2023-04-12T00:26:47.520Z,7.77
2023-04-12T00:27:47.504Z,7.69
2023-04-12T00:28:47.523Z,7.68
2023-04-12T00:29:47.477Z,7.61
2023-04-12T00:30:47.490Z,7.66
2023-04-12T00:31:47.509Z,7.62
2023-04-12T00:32:47.497Z,7.64
2023-04-12T00:33:47.436Z,7.66
2023-04-12T00:34:47.434Z,7.60
2023-04-12T00:35:47.493Z,7.62
2023-04-12T00:36:47.430Z,7.61
2023-04-12T00:37:47.400Z,7.58
2023-04-12T00:38:47.418Z,7.58
2023-04-12T00:39:47.372Z,7.52
2023-04-12T00:40:47.360Z,7.52
2023-04-12T00:41:47.377Z,7.47
2023-04-12T00:42:47.346Z,7.42
2023-04-12T00:43:47.354Z,7.49
2023-04-12T00:44:47.319Z,7.50
2023-04-12T00:45:47.302Z,7.52
2023-04-12T00:46:47.374Z,7.49
2023-04-12T00:47:47.411Z,7.43
2023-04-12T00:48:47.270Z,7.50
2023-04-12T00:49:47.258Z,7.40
2023-04-12T00:50:47.272Z,7.46
2023-04-12T00:51:47.233Z,7.43
2023-04-12T00:52:47.252Z,7.40
2023-04-12T00:53:47.215Z,7.42
2023-04-12T00:54:47.204Z,7.40
2023-04-12T00:55:47.196Z,7.36
2023-04-12T00:56:47.197Z,7.25
2023-04-12T00:57:47.195Z,7.26
2023-04-12T00:58:47.169Z,7.36
2023-04-12T00:59:47.174Z,7.28
2023-04-12T01:00:47.163Z,7.22
2023-04-12T01:01:47.220Z,7.25
2023-04-12T01:02:47.705Z,7.28
2023-04-12T01:03:47.324Z,7.18
2023-04-12T01:04:47.089Z,7.26
2023-04-12T01:05:47.082Z,7.22
2023-04-12T01:06:47.104Z,7.25
2023-04-12T01:07:47.060Z,7.19
2023-04-12T01:08:47.042Z,7.21
2023-04-12T01:09:47.057Z,7.13
2023-04-12T01:10:47.020Z,7.16
2023-04-12T01:11:47.029Z,7.16
2023-04-12T01:12:47.016Z,7.15
2023-04-12T01:13:46.990Z,7.16
2023-04-12T01:14:46.980Z,7.13
2023-04-12T01:15:46.980Z,7.16
2023-04-12T01:16:47.019Z,7.16
2023-04-12T01:17:47.017Z,7.07
2023-04-12T01:18:46.932Z,7.01
2023-04-12T01:19:46.968Z,7.07
2023-04-12T01:20:46.912Z,7.00
2023-04-12T01:21:46.898Z,7.00
2023-04-12T01:22:46.890Z,7.07
2023-04-12T01:23:46.876Z,7.01
2023-04-12T01:24:46.907Z,6.96
2023-04-12T01:25:46.901Z,7.01
2023-04-12T01:26:46.847Z,6.96
2023-04-12T01:27:46.844Z,6.97
2023-04-12T01:28:46.819Z,7.00
2023-04-12T01:29:46.847Z,7.00
2023-04-12T01:30:46.803Z,6.99
2023-04-12T01:31:46.875Z,6.89
2023-04-12T01:32:46.777Z,6.92
2023-04-12T01:33:46.764Z,6.89
2023-04-12T01:34:46.754Z,6.85
2023-04-12T01:35:46.869Z,6.89
2023-04-12T01:36:46.730Z,6.83
2023-04-12T01:37:46.754Z,6.86
2023-04-12T01:38:46.728Z,6.88
2023-04-12T01:39:46.702Z,6.83
2023-04-12T01:40:46.686Z,6.89
2023-04-12T01:41:46.681Z,6.83
2023-04-12T01:42:46.697Z,6.78
2023-04-12T01:43:46.659Z,6.81
2023-04-12T01:44:46.653Z,6.74
2023-04-12T01:45:46.656Z,6.83
2023-04-12T01:46:46.628Z,6.78
2023-04-12T01:47:46.643Z,6.67
2023-04-12T01:48:46.632Z,6.79
2023-04-12T01:49:46.601Z,6.64
2023-04-12T01:50:46.591Z,6.67
2023-04-12T01:51:46.652Z,6.73
2023-04-12T01:52:46.565Z,6.68
2023-04-12T01:53:46.587Z,6.70
2023-04-12T01:54:46.544Z,6.65
2023-04-12T01:55:46.529Z,6.65
2023-04-12T01:56:46.527Z,6.64
2023-04-12T01:57:46.510Z,6.64
2023-04-12T01:58:46.516Z,6.52
2023-04-12T01:59:46.491Z,6.57
2023-04-12T02:00:46.542Z,6.57
2023-04-12T02:01:46.521Z,6.67
2023-04-12T02:02:46.624Z,6.49
2023-04-12T02:03:46.539Z,6.65
2023-04-12T02:04:46.433Z,6.57
2023-04-12T02:05:46.458Z,6.61
2023-04-12T02:06:46.413Z,6.57
2023-04-12T02:07:46.428Z,6.55
2023-04-12T02:08:46.390Z,6.57
2023-04-12T02:09:46.389Z,6.56
2023-04-12T02:10:46.375Z,6.45
2023-04-12T02:11:46.404Z,6.50
2023-04-12T02:12:46.348Z,6.53
2023-04-12T02:13:46.354Z,6.52
2023-04-12T02:14:46.317Z,6.52
2023-04-12T02:15:46.314Z,6.45
2023-04-12T02:16:46.408Z,6.42
2023-04-12T02:17:46.331Z,6.42
2023-04-12T02:18:46.300Z,6.40
2023-04-12T02:19:46.284Z,6.45
2023-04-12T02:20:46.256Z,6.43
2023-04-12T02:21:46.252Z,6.37
2023-04-12T02:22:46.260Z,6.38
2023-04-12T02:23:46.296Z,6.37
2023-04-12T02:24:46.219Z,6.45
2023-04-12T02:25:46.204Z,6.31
2023-04-12T02:26:46.237Z,6.40
2023-04-12T02:27:46.216Z,6.46
2023-04-12T02:28:46.170Z,6.30
2023-04-12T02:29:46.164Z,6.35
2023-04-12T02:30:46.181Z,6.31
2023-04-12T02:31:46.146Z,6.30
2023-04-12T02:32:46.183Z,6.37
2023-04-12T02:33:46.134Z,6.31
2023-04-12T02:34:46.110Z,6.31
2023-04-12T02:35:46.117Z,6.31
2023-04-12T02:36:46.086Z,6.28
2023-04-12T02:37:46.100Z,6.25
2023-04-12T02:38:46.067Z,6.28
2023-04-12T02:39:46.073Z,6.28
2023-04-12T02:40:46.042Z,6.24
2023-04-12T02:41:46.058Z,6.21
2023-04-12T02:42:46.055Z,6.24
2023-04-12T02:43:46.019Z,6.21
2023-04-12T02:44:45.995Z,6.21
2023-04-12T02:45:46.008Z,6.16
2023-04-12T02:46:45.982Z,6.12
2023-04-12T02:47:46.018Z,6.21
2023-04-12T02:48:45.975Z,6.19
2023-04-12T02:49:45.954Z,6.13
2023-04-12T02:50:45.950Z,6.24
2023-04-12T02:51:45.963Z,5.98
2023-04-12T02:52:45.930Z,6.11
2023-04-12T02:53:45.937Z,6.12
2023-04-12T02:54:45.922Z,6.11
2023-04-12T02:55:45.928Z,6.15
2023-04-12T02:56:45.873Z,6.09
2023-04-12T02:57:45.868Z,6.09
2023-04-12T02:58:45.874Z,6.06
2023-04-12T02:59:45.839Z,6.03
2023-04-12T03:00:45.832Z,5.93
2023-04-12T03:01:45.962Z,5.94
2023-04-12T03:02:45.952Z,5.97
2023-04-12T03:03:45.874Z,5.94
2023-04-12T03:04:45.781Z,5.95
2023-04-12T03:05:45.775Z,5.94
2023-04-12T03:06:45.764Z,5.93
2023-04-12T03:07:45.774Z,5.95
2023-04-12T03:08:45.759Z,5.94
2023-04-12T03:09:45.739Z,5.91
2023-04-12T03:10:45.715Z,5.91
2023-04-12T03:11:45.730Z,5.90
2023-04-12T03:12:45.718Z,5.85
2023-04-12T03:13:45.718Z,5.79
2023-04-12T03:14:45.678Z,5.87
2023-04-12T03:15:45.687Z,5.82
2023-04-12T03:16:45.651Z,5.82
2023-04-12T03:17:45.696Z,5.88
2023-04-12T03:18:45.653Z,5.85
2023-04-12T03:19:45.618Z,5.77
2023-04-12T03:20:47.706Z,5.80
2023-04-12T03:21:45.618Z,5.84
2023-04-12T03:22:45.592Z,5.77
2023-04-12T03:23:45.585Z,5.73
2023-04-12T03:24:45.562Z,5.73
2023-04-12T03:25:45.551Z,5.77
2023-04-12T03:26:45.582Z,5.67
2023-04-12T03:27:45.553Z,5.75
2023-04-12T03:28:45.530Z,5.62
2023-04-12T03:29:45.512Z,5.69
2023-04-12T03:30:45.583Z,5.72
2023-04-12T03:31:45.492Z,5.67
2023-04-12T03:32:45.513Z,5.67
2023-04-12T03:33:45.468Z,5.67
2023-04-12T03:34:45.453Z,5.69
2023-04-12T03:35:45.486Z,5.59
2023-04-12T03:36:45.462Z,5.59
2023-04-12T03:37:45.442Z,5.57
2023-04-12T03:38:45.413Z,5.65
2023-04-12T03:39:45.408Z,5.57
2023-04-12T03:40:45.383Z,5.61
2023-04-12T03:41:45.381Z,5.57
2023-04-12T03:42:45.392Z,5.62
2023-04-12T03:43:45.375Z,5.54
2023-04-12T03:44:45.346Z,5.59
2023-04-12T03:45:45.335Z,5.51
2023-04-12T03:46:45.338Z,5.48
2023-04-12T03:47:45.381Z,5.52
2023-04-12T03:48:45.298Z,5.52
2023-04-12T03:49:52.016Z,5.58
2023-04-12T03:50:46.273Z,5.50
2023-04-12T03:51:45.272Z,5.48
2023-04-12T03:52:45.279Z,5.50
2023-04-12T03:53:45.248Z,5.52
2023-04-12T03:54:45.234Z,5.47
2023-04-12T03:55:45.270Z,5.41
2023-04-12T03:56:46.269Z,5.47
2023-04-12T03:57:45.237Z,5.48
2023-04-12T03:58:45.192Z,5.39
2023-04-12T03:59:45.210Z,5.34
2023-04-12T04:00:45.168Z,5.36
2023-04-12T04:01:45.193Z,5.39
2023-04-12T04:02:45.316Z,5.43
2023-04-12T04:03:46.469Z,5.33
2023-04-12T04:04:45.172Z,5.41
2023-04-12T04:05:45.124Z,5.34
2023-04-12T04:06:45.109Z,5.29
2023-04-12T04:07:45.126Z,5.36
2023-04-12T04:08:45.158Z,5.24
2023-04-12T04:09:45.073Z,5.32
2023-04-12T04:10:45.076Z,5.32
2023-04-12T04:11:45.058Z,5.29
2023-04-12T04:12:45.068Z,5.27
2023-04-12T04:13:45.033Z,5.29
2023-04-12T04:14:45.016Z,5.32
2023-04-12T04:15:45.042Z,5.29
2023-04-12T04:16:45.036Z,5.32
2023-04-12T04:17:45.067Z,5.25
2023-04-12T04:18:44.981Z,5.25
2023-04-12T04:19:44.968Z,5.25
2023-04-12T04:20:44.954Z,5.22
2023-04-12T04:21:44.945Z,5.19
2023-04-12T04:22:44.960Z,5.21
2023-04-12T04:23:45.106Z,5.18
2023-04-12T04:24:44.931Z,5.16
2023-04-12T04:25:44.904Z,5.18
2023-04-12T04:26:44.887Z,5.18
2023-04-12T04:27:45.006Z,5.19
2023-04-12T04:28:44.871Z,5.16
2023-04-12T04:29:44.858Z,5.14
2023-04-12T04:30:44.846Z,5.09
2023-04-12T04:31:44.884Z,5.09
2023-04-12T04:32:44.858Z,5.07
2023-04-12T04:33:44.869Z,5.12
2023-04-12T04:34:44.822Z,5.09
2023-04-12T04:35:44.821Z,5.12
2023-04-12T04:36:44.789Z,5.04
2023-04-12T04:37:44.773Z,5.04
2023-04-12T04:38:44.800Z,5.09
2023-04-12T04:39:44.776Z,5.07
2023-04-12T04:40:44.749Z,5.01
2023-04-12T04:41:44.741Z,5.07
2023-04-12T04:42:44.715Z,5.04
2023-04-12T04:43:44.735Z,5.01
2023-04-12T04:44:44.700Z,5.03
2023-04-12T04:45:44.714Z,5.07
2023-04-12T04:46:44.682Z,4.98
2023-04-12T04:47:44.723Z,4.96
2023-04-12T04:48:44.684Z,4.94
2023-04-12T04:49:44.652Z,5.01
2023-04-12T04:50:44.639Z,4.96
2023-04-12T04:51:44.633Z,4.97
2023-04-12T04:52:44.622Z,4.93
2023-04-12T04:53:44.642Z,4.93
2023-04-12T04:54:44.588Z,4.97
2023-04-12T04:55:44.582Z,5.00
2023-04-12T04:56:44.587Z,4.97
2023-04-12T04:57:44.561Z,4.98
2023-04-12T04:58:44.554Z,4.98
2023-04-12T04:59:44.540Z,4.96
2023-04-12T05:00:44.541Z,5.00
2023-04-12T05:01:44.777Z,4.94
2023-04-12T05:02:44.556Z,4.91
2023-04-12T05:03:44.563Z,4.91
2023-04-12T05:04:44.486Z,4.88
2023-04-12T05:05:44.474Z,4.96
2023-04-12T05:06:44.481Z,4.94
2023-04-12T05:07:44.450Z,4.93
2023-04-12T05:08:44.432Z,4.96
2023-04-12T05:09:44.427Z,4.91
2023-04-12T05:10:44.423Z,4.93
2023-04-12T05:11:44.422Z,4.86
2023-04-12T05:12:44.408Z,4.93
2023-04-12T05:13:44.376Z,4.85
2023-04-12T05:14:47.969Z,4.97
2023-04-12T05:15:45.353Z,4.97
2023-04-12T05:16:44.384Z,4.96
2023-04-12T05:17:44.449Z,4.93
2023-04-12T05:18:44.337Z,4.85
2023-04-12T05:19:44.367Z,4.97
2023-04-12T05:20:44.312Z,4.86
2023-04-12T05:21:44.308Z,4.93
2023-04-12T05:22:44.317Z,4.97
2023-04-12T05:23:44.290Z,4.97
2023-04-12T05:24:44.260Z,4.96
2023-04-12T05:25:44.247Z,4.91
2023-04-12T05:26:44.241Z,4.93
2023-04-12T05:27:44.236Z,4.94
2023-04-12T05:28:44.247Z,4.96
2023-04-12T05:29:44.207Z,4.91
2023-04-12T05:30:44.209Z,4.98
2023-04-12T05:31:44.187Z,4.94
2023-04-12T05:32:44.221Z,4.98
2023-04-12T05:33:44.185Z,4.97
2023-04-12T05:34:44.179Z,5.01
2023-04-12T05:35:44.251Z,4.98
2023-04-12T05:36:44.149Z,4.93
2023-04-12T05:37:44.141Z,5.04
2023-04-12T05:38:44.151Z,5.03
2023-04-12T05:39:44.111Z,5.00
2023-04-12T05:40:44.222Z,5.07
2023-04-12T05:41:44.081Z,5.09
2023-04-12T05:42:44.090Z,5.11
2023-04-12T05:43:44.071Z,5.11
2023-04-12T05:44:44.053Z,5.01
2023-04-12T05:45:44.045Z,5.11
2023-04-12T05:46:44.054Z,5.09
2023-04-12T05:47:44.072Z,5.07
2023-04-12T05:48:44.034Z,5.14
2023-04-12T05:49:43.998Z,5.16
2023-04-12T05:50:43.987Z,5.06
2023-04-12T05:51:43.999Z,5.12
2023-04-12T05:52:43.961Z,5.07
2023-04-12T05:53:43.981Z,5.18
2023-04-12T05:54:43.961Z,5.18
2023-04-12T05:55:43.928Z,5.16
2023-04-12T05:56:43.919Z,5.21
2023-04-12T05:57:43.904Z,5.19
2023-04-12T05:58:43.924Z,5.25
2023-04-12T05:59:43.912Z,5.22
2023-04-12T06:00:43.881Z,5.27
2023-04-12T06:01:43.917Z,5.29
2023-04-12T06:02:43.933Z,5.32
2023-04-12T06:03:43.983Z,5.29
2023-04-12T06:04:50.700Z,5.30
2023-04-12T06:05:44.875Z,5.34
2023-04-12T06:06:43.817Z,5.33
2023-04-12T06:07:43.819Z,5.30
2023-04-12T06:08:43.805Z,5.37
2023-04-12T06:09:43.812Z,5.39
2023-04-12T06:10:43.770Z,5.39
2023-04-12T06:11:43.754Z,5.41
2023-04-12T06:12:43.755Z,5.43
2023-04-12T06:13:43.754Z,5.41
2023-04-12T06:14:43.724Z,5.51
2023-04-12T06:15:43.783Z,5.52
2023-04-12T06:16:43.715Z,5.58
2023-04-12T06:17:43.717Z,5.54
2023-04-12T06:18:43.690Z,5.62
2023-04-12T06:19:43.689Z,5.59
2023-04-12T06:20:43.673Z,5.52
2023-04-12T06:21:43.648Z,5.62
2023-04-12T06:22:43.647Z,5.57
2023-04-12T06:23:43.656Z,5.69
2023-04-12T06:24:43.628Z,5.73
2023-04-12T06:25:43.667Z,5.65
2023-04-12T06:26:43.593Z,5.75
2023-04-12T06:27:43.589Z,5.69
2023-04-12T06:28:43.576Z,5.80
2023-04-12T06:29:43.559Z,5.80
2023-04-12T06:30:43.575Z,5.84
2023-04-12T06:31:43.653Z,5.87
2023-04-12T06:32:43.545Z,5.85
2023-04-12T06:33:43.510Z,5.88
2023-04-12T06:34:43.572Z,5.93
2023-04-12T06:35:43.529Z,5.95
2023-04-12T06:36:43.484Z,6.00
2023-04-12T06:37:43.460Z,6.00
2023-04-12T06:38:43.460Z,5.97
2023-04-12T06:39:43.497Z,5.97
2023-04-12T06:40:43.474Z,6.08
2023-04-12T06:41:43.419Z,6.13
2023-04-12T06:42:43.435Z,6.13
2023-04-12T06:43:43.399Z,6.13
2023-04-12T06:44:43.399Z,6.16
2023-04-12T06:45:44.277Z,6.19
2023-04-12T06:46:43.512Z,6.16
2023-04-12T06:47:43.369Z,6.19
2023-04-12T06:48:43.343Z,6.30
2023-04-12T06:49:43.361Z,6.32
2023-04-12T06:50:43.517Z,6.30
2023-04-12T06:51:43.317Z,6.34
2023-04-12T06:52:43.304Z,6.30
2023-04-12T06:53:43.315Z,6.45
2023-04-12T06:54:43.302Z,6.45
2023-04-12T06:55:43.303Z,6.45
2023-04-12T06:56:43.293Z,6.43
2023-04-12T06:57:43.262Z,6.43
2023-04-12T06:58:43.238Z,6.57
2023-04-12T06:59:43.227Z,6.50
2023-04-12T07:00:43.250Z,6.60
2023-04-12T07:01:43.696Z,6.63
2023-04-12T07:02:43.424Z,6.65
2023-04-12T07:03:43.289Z,6.73
2023-04-12T07:04:43.180Z,6.65
2023-04-12T07:05:43.185Z,6.67
2023-04-12T07:06:43.156Z,6.78
2023-04-12T07:07:43.148Z,6.78
2023-04-12T07:08:43.130Z,6.81
2023-04-12T07:09:43.120Z,6.83
2023-04-12T07:10:43.136Z,6.83
2023-04-12T07:11:43.123Z,6.85
2023-04-12T07:12:43.089Z,6.89
2023-04-12T07:13:43.077Z,6.86
2023-04-12T07:14:44.627Z,7.04
2023-04-12T07:15:43.082Z,7.04
2023-04-12T07:16:43.085Z,7.03
2023-04-12T07:17:43.065Z,7.03
2023-04-12T07:18:43.042Z,7.16
2023-04-12T07:19:43.011Z,7.15
2023-04-12T07:20:43.032Z,7.16
2023-04-12T07:21:43.011Z,7.18
2023-04-12T07:22:43.096Z,7.19
2023-04-12T07:23:42.970Z,7.29
2023-04-12T07:24:42.965Z,7.40
2023-04-12T07:25:42.948Z,7.40
2023-04-12T07:26:42.963Z,7.43
2023-04-12T07:27:42.956Z,7.46
2023-04-12T07:28:42.917Z,7.46
2023-04-12T07:29:42.901Z,7.52
2023-04-12T07:30:42.907Z,7.57
2023-04-12T07:31:42.897Z,7.68
2023-04-12T07:32:43.015Z,7.69
2023-04-12T07:33:43.555Z,7.66
2023-04-12T07:34:42.883Z,7.68
2023-04-12T07:35:42.851Z,7.80
2023-04-12T07:36:42.845Z,7.84
2023-04-12T07:37:42.814Z,7.88
2023-04-12T07:38:42.803Z,7.87
2023-04-12T07:39:42.819Z,7.98
2023-04-12T07:40:42.813Z,7.95
2023-04-12T07:41:42.813Z,7.99
2023-04-12T07:42:42.788Z,8.04
2023-04-12T07:43:42.769Z,8.12
2023-04-12T07:44:42.745Z,8.13
2023-04-12T07:45:42.743Z,8.21
2023-04-12T07:46:42.744Z,8.24
2023-04-12T07:47:42.731Z,8.28
2023-04-12T07:48:42.699Z,8.35
2023-04-12T07:49:42.684Z,8.38
2023-04-12T07:50:42.682Z,8.42
2023-04-12T07:51:42.691Z,8.46
2023-04-12T07:52:42.703Z,8.50
2023-04-12T07:53:42.639Z,8.52
2023-04-12T07:54:42.653Z,8.59
2023-04-12T07:55:42.614Z,8.62
2023-04-12T07:56:42.614Z,8.63
2023-04-12T07:57:42.600Z,8.74
2023-04-12T07:58:42.582Z,8.68
2023-04-12T07:59:42.627Z,8.80
2023-04-12T08:00:42.573Z,8.85
2023-04-12T08:01:42.603Z,8.90
2023-04-12T08:02:42.700Z,9.03
2023-04-12T08:03:42.620Z,9.04
2023-04-12T08:04:42.522Z,9.09
2023-04-12T08:05:42.562Z,9.01
2023-04-12T08:06:42.521Z,9.09
2023-04-12T08:07:42.490Z,9.24
2023-04-12T08:08:42.493Z,9.18
2023-04-12T08:09:42.477Z,9.33
2023-04-12T08:10:42.456Z,9.26
2023-04-12T08:11:42.475Z,9.30
2023-04-12T08:12:42.436Z,9.33
2023-04-12T08:13:42.428Z,9.37
2023-04-12T08:14:42.415Z,9.37
2023-04-12T08:15:42.659Z,9.48
2023-04-12T08:16:42.394Z,9.40
2023-04-12T08:17:42.445Z,9.59
2023-04-12T08:18:42.373Z,9.60
2023-04-12T08:19:42.360Z,9.73
2023-04-12T08:20:42.343Z,9.80
2023-04-12T08:21:42.356Z,9.80
2023-04-12T08:22:42.372Z,9.98
2023-04-12T08:23:42.317Z,9.94
2023-04-12T08:24:42.314Z,10.09
2023-04-12T08:25:42.300Z,10.05
2023-04-12T08:26:42.290Z,10.12
2023-04-12T08:27:42.313Z,10.18
2023-04-12T08:28:42.262Z,10.26
2023-04-12T08:29:42.255Z,10.26
2023-04-12T08:30:42.238Z,10.36
2023-04-12T08:31:42.322Z,10.41
2023-04-12T08:32:42.255Z,10.42
2023-04-12T08:33:42.203Z,10.48
2023-04-12T08:34:44.659Z,10.62
2023-04-12T08:35:42.218Z,10.64
2023-04-12T08:36:42.185Z,10.68
2023-04-12T08:37:42.260Z,10.73
2023-04-12T08:38:46.045Z,10.76
2023-04-12T08:39:42.141Z,10.82
2023-04-12T08:40:42.127Z,10.90
2023-04-12T08:41:42.110Z,10.98
2023-04-12T08:42:42.131Z,10.98
2023-04-12T08:43:42.104Z,11.08
2023-04-12T08:44:42.083Z,10.98
2023-04-12T08:45:42.072Z,11.08
2023-04-12T08:46:42.133Z,11.15
2023-04-12T08:47:42.126Z,11.20
2023-04-12T08:48:42.040Z,11.25
2023-04-12T08:49:42.025Z,11.31
2023-04-12T08:50:42.046Z,11.28
2023-04-12T08:51:42.006Z,11.38
2023-04-12T08:52:42.030Z,11.37
2023-04-12T08:53:41.986Z,11.46
2023-04-12T08:54:41.977Z,11.54
2023-04-12T08:55:41.974Z,11.48
2023-04-12T08:56:41.990Z,11.56
2023-04-12T08:57:41.954Z,11.58
2023-04-12T08:58:41.952Z,11.67
2023-04-12T08:59:41.931Z,11.62
2023-04-12T09:00:41.912Z,11.64
2023-04-12T09:01:42.020Z,11.62
2023-04-12T09:02:42.187Z,11.73
2023-04-12T09:03:42.103Z,11.77
2023-04-12T09:04:41.959Z,11.79
2023-04-12T09:05:41.877Z,11.80
2023-04-12T09:06:41.866Z,11.87
2023-04-12T09:07:41.833Z,11.88
2023-04-12T09:08:41.837Z,11.93
2023-04-12T09:09:41.810Z,11.88
2023-04-12T09:10:41.799Z,11.89
2023-04-12T09:11:41.823Z,11.89
2023-04-12T09:12:41.785Z,12.04
2023-04-12T09:13:41.771Z,11.99
2023-04-12T09:14:41.755Z,11.99
2023-04-12T09:15:41.746Z,12.05
2023-04-12T09:16:41.833Z,12.21
2023-04-12T09:17:41.806Z,12.25
2023-04-12T09:18:41.713Z,12.10
2023-04-12T09:19:41.770Z,12.28
2023-04-12T09:20:41.692Z,12.29
2023-04-12T09:21:41.708Z,12.30
2023-04-12T09:22:41.670Z,12.29
2023-04-12T09:23:41.693Z,12.40
2023-04-12T09:24:41.665Z,12.46
2023-04-12T09:25:41.631Z,12.50
2023-04-12T09:26:41.620Z,12.58
2023-04-12T09:27:41.601Z,12.59
2023-04-12T09:28:41.612Z,12.68
2023-04-12T09:29:41.613Z,12.76
2023-04-12T09:30:41.574Z,12.90
2023-04-12T09:31:41.598Z,12.99
2023-04-12T09:32:41.600Z,13.01
2023-04-12T09:33:41.560Z,13.06
2023-04-12T09:34:41.548Z,13.17
2023-04-12T09:35:41.611Z,13.26
2023-04-12T09:36:41.505Z,13.39
2023-04-12T09:37:41.498Z,13.43
2023-04-12T09:38:41.525Z,13.47
2023-04-12T09:39:41.509Z,13.63
2023-04-12T09:40:41.465Z,13.67
2023-04-12T09:41:41.460Z,13.79
2023-04-12T09:42:41.452Z,13.82
2023-04-12T09:43:41.468Z,13.91
2023-04-12T09:44:41.415Z,13.88
2023-04-12T09:45:41.415Z,13.96
2023-04-12T09:46:41.428Z,13.94
2023-04-12T09:47:41.606Z,14.00
2023-04-12T09:48:41.424Z,14.03
2023-04-12T09:49:41.388Z,14.11
2023-04-12T09:50:41.375Z,14.15
2023-04-12T09:51:41.393Z,14.33
2023-04-12T09:52:41.354Z,14.33
2023-04-12T09:53:41.352Z,14.41
2023-04-12T09:54:41.346Z,14.40
2023-04-12T09:55:41.300Z,14.61
2023-04-12T09:56:41.292Z,14.58
2023-04-12T09:57:41.276Z,14.56
2023-04-12T09:58:41.285Z,14.74
2023-04-12T09:59:41.262Z,14.85
2023-04-12T10:00:41.282Z,14.92
2023-04-12T10:01:41.374Z,14.90
2023-04-12T10:02:41.494Z,15.07
2023-04-12T10:03:41.381Z,15.12
2023-04-12T10:04:41.495Z,15.23
2023-04-12T10:05:41.206Z,15.17
2023-04-12T10:06:41.196Z,15.29
2023-04-12T10:07:41.194Z,15.33
2023-04-12T10:08:41.185Z,15.50
2023-04-12T10:09:41.155Z,15.54
2023-04-12T10:10:41.148Z,15.63
2023-04-12T10:11:41.123Z,15.76
2023-04-12T10:12:41.140Z,15.88
2023-04-12T10:13:41.123Z,16.00
2023-04-12T10:14:41.104Z,15.99
2023-04-12T10:15:41.132Z,16.14
2023-04-12T10:16:41.192Z,16.14
2023-04-12T10:17:41.103Z,16.28
2023-04-12T10:18:41.040Z,16.32
2023-04-12T10:19:41.046Z,16.46
2023-04-12T10:20:41.045Z,16.55
2023-04-12T10:21:41.066Z,16.59
2023-04-12T10:22:41.019Z,16.72
2023-04-12T10:23:41.019Z,16.83
2023-04-12T10:24:40.997Z,17.09
2023-04-12T10:25:40.983Z,17.24
2023-04-12T10:26:40.975Z,17.35
2023-04-12T10:27:40.949Z,17.52
2023-04-12T10:28:40.946Z,17.75
2023-04-12T10:29:40.931Z,18.01
2023-04-12T10:30:40.935Z,18.28
2023-04-12T10:31:41.021Z,18.56
2023-04-12T10:32:40.923Z,18.70
2023-04-12T10:33:40.886Z,19.01
2023-04-12T10:34:40.887Z,19.23
2023-04-12T10:35:40.895Z,19.54
2023-04-12T10:36:40.890Z,19.72
2023-04-12T10:37:40.839Z,20.11
2023-04-12T10:38:40.829Z,20.36
2023-04-12T10:39:40.878Z,20.44
2023-04-12T10:40:40.827Z,20.68
2023-04-12T10:41:40.825Z,20.79
2023-04-12T10:42:40.783Z,20.97
2023-04-12T10:43:40.813Z,21.16
2023-04-12T10:44:40.759Z,21.26
2023-04-12T10:45:40.780Z,21.40
2023-04-12T10:46:40.869Z,21.56
2023-04-12T10:47:40.797Z,21.75
2023-04-12T10:48:40.718Z,21.94
2023-04-12T10:49:40.762Z,22.06
2023-04-12T10:50:40.746Z,22.16
2023-04-12T10:51:40.855Z,22.33
2023-04-12T10:52:40.673Z,22.58
2023-04-12T10:53:40.672Z,22.76
2023-04-12T10:54:40.677Z,22.80
2023-04-12T10:55:40.674Z,22.85
2023-04-12T10:56:40.703Z,22.93
2023-04-12T10:57:40.657Z,22.89
2023-04-12T10:58:40.626Z,22.81
2023-04-12T10:59:47.560Z,22.83
2023-04-12T11:00:40.661Z,22.86
2023-04-12T11:01:40.920Z,22.85
2023-04-12T11:02:40.716Z,22.88
2023-04-12T11:03:40.657Z,22.88
2023-04-12T11:04:40.607Z,22.85
2023-04-12T11:05:40.661Z,22.93
2023-04-12T11:06:40.550Z,22.78
2023-04-12T11:07:40.555Z,22.86
2023-04-12T11:08:40.539Z,22.81
2023-04-12T11:09:40.527Z,22.81
2023-04-12T11:10:40.483Z,22.78
2023-04-12T11:11:40.496Z,22.74
2023-04-12T11:12:40.483Z,22.86
2023-04-12T11:13:40.483Z,22.83
2023-04-12T11:14:40.434Z,22.86
2023-04-12T11:15:40.451Z,22.93
2023-04-12T11:16:40.492Z,23.13
2023-04-12T11:17:40.500Z,23.13
2023-04-12T11:18:40.479Z,23.18
2023-04-12T11:19:40.381Z,23.31
2023-04-12T11:20:40.385Z,23.36
2023-04-12T11:21:40.385Z,23.22
2023-04-12T11:22:40.368Z,23.28
2023-04-12T11:23:40.358Z,23.14
2023-04-12T11:24:40.403Z,23.13
2023-04-12T11:25:40.314Z,23.15
2023-04-12T11:26:40.296Z,23.14
2023-04-12T11:27:40.368Z,23.03
2023-04-12T11:28:40.312Z,22.93
2023-04-12T11:29:40.270Z,22.98
2023-04-12T11:30:40.256Z,22.81
2023-04-12T11:31:40.305Z,22.86
2023-04-12T11:32:40.317Z,22.74
2023-04-12T11:33:40.227Z,22.73
2023-04-12T11:34:40.218Z,22.64
2023-04-12T11:35:40.206Z,22.58
2023-04-12T11:36:40.196Z,22.58
2023-04-12T11:37:40.221Z,22.76
2023-04-12T11:38:40.322Z,22.92
2023-04-12T11:39:40.173Z,23.01
2023-04-12T11:40:40.152Z,23.08
2023-04-12T11:41:40.143Z,23.18
2023-04-12T11:42:40.153Z,23.18
2023-04-12T11:43:40.187Z,23.21
2023-04-12T11:44:55.214Z,23.33
2023-04-12T11:45:41.173Z,23.44
2023-04-12T11:46:40.090Z,23.70
2023-04-12T11:47:40.157Z,23.69
2023-04-12T11:48:40.115Z,23.60
2023-04-12T11:49:40.068Z,23.49
2023-04-12T11:50:40.061Z,23.63
2023-04-12T11:51:40.048Z,23.63
2023-04-12T11:52:40.067Z,23.64
2023-04-12T11:53:40.012Z,23.61
2023-04-12T11:54:40.003Z,23.60
2023-04-12T11:55:39.991Z,23.73
2023-04-12T11:56:39.988Z,23.73
2023-04-12T11:57:40.003Z,23.74
2023-04-12T11:58:40.006Z,23.85
2023-04-12T11:59:40.167Z,23.89
2023-04-12T12:00:39.938Z,23.81
2023-04-12T12:01:39.961Z,23.69
2023-04-12T12:02:46.488Z,23.64
2023-04-12T12:03:41.107Z,23.46
2023-04-12T12:04:40.497Z,23.42
2023-04-12T12:05:40.194Z,23.34
2023-04-12T12:06:40.423Z,23.22
2023-04-12T12:07:39.890Z,23.14
2023-04-12T12:08:39.877Z,22.95
2023-04-12T12:09:39.845Z,22.99
2023-04-12T12:10:55.572Z,22.88
2023-04-12T12:11:40.826Z,22.83
2023-04-12T12:12:39.809Z,22.68
2023-04-12T12:13:41.165Z,22.59
2023-04-12T12:14:39.805Z,22.55
2023-04-12T12:15:39.950Z,22.44
2023-04-12T12:16:39.818Z,22.37
2023-04-12T12:17:39.778Z,22.28
2023-04-12T12:18:39.778Z,22.25
2023-04-12T12:19:39.734Z,22.16
2023-04-12T12:20:39.718Z,22.15
2023-04-12T12:21:39.714Z,21.97
2023-04-12T12:22:39.693Z,22.00
2023-04-12T12:23:39.718Z,21.98
2023-04-12T12:24:43.424Z,21.98
2023-04-12T12:25:39.666Z,21.85
2023-04-12T12:26:39.659Z,21.82
2023-04-12T12:27:39.708Z,21.73
2023-04-12T12:28:39.654Z,21.73
2023-04-12T12:29:39.637Z,21.55
2023-04-12T12:30:39.635Z,21.58
2023-04-12T12:31:41.370Z,21.59
2023-04-12T12:32:39.622Z,21.51
2023-04-12T12:33:46.745Z,21.51
2023-04-12T12:34:40.578Z,21.44
2023-04-12T12:35:39.598Z,21.41
2023-04-12T12:36:39.565Z,21.35
2023-04-12T12:37:39.542Z,21.38
2023-04-12T12:38:39.582Z,21.29
2023-04-12T12:39:39.519Z,21.29
2023-04-12T12:40:39.521Z,21.26
2023-04-12T12:41:39.497Z,21.20
2023-04-12T12:42:39.491Z,21.16
2023-04-12T12:43:39.477Z,21.22
2023-04-12T12:44:39.460Z,21.19
2023-04-12T12:45:39.486Z,21.16
2023-04-12T12:47:39.593Z,21.10
2023-04-12T12:48:39.442Z,20.97
2023-04-12T12:49:39.421Z,21.05
2023-04-12T12:50:39.410Z,21.03
2023-04-12T12:51:39.377Z,20.97
2023-04-12T12:52:39.364Z,21.03
2023-04-12T12:53:39.362Z,20.95
2023-04-12T12:54:41.447Z,20.97
2023-04-12T12:55:39.367Z,20.95
2023-04-12T12:56:39.327Z,20.90
2023-04-12T12:57:39.313Z,20.90
2023-04-12T12:58:41.008Z,20.88
2023-04-12T12:59:39.303Z,20.83
2023-04-12T13:00:39.297Z,20.83
2023-04-12T13:01:39.374Z,20.83
2023-04-12T13:02:39.401Z,20.77
2023-04-12T13:03:39.482Z,20.79
2023-04-12T13:04:39.345Z,20.73
2023-04-12T13:05:39.225Z,20.73
2023-04-12T13:06:39.211Z,20.70
2023-04-12T13:07:39.195Z,20.74
2023-04-12T13:08:39.184Z,20.64
2023-04-12T13:09:39.207Z,20.56